Detall de PIREP

Printer-friendly versionPDF version

[2014/07/16 17:13:00]
Flight IATA:CT2215
Pilot Number:012
Company ICAO:CAT
Aircraft Type:MD11/E
PAX:0
Aircraft Registration:CARGO
Departing Airport: LFRS
Destination Airport: LFMP
Alternate Airport:LFMT
Online: VATSIM
Route:LUGEN UM616 BEBIX UP860 VALKU UN855 OLRAK UZ131 BADAM UY27 SIJAN
Flight Level:F310
No Slew and time accel
No pause
Crash detect
Detect pilot in Cockpit between each 30 and 45 minutes
17:13 Zero fuel Weight: 450801 Lbs, Fuel Weight: 35910 Lbs
17:13 VATSIM:LFRS 161700Z 36003KT 290V060 CAVOK 30/16 Q1018 NOSIG
17:13 VATSIM:LFMP 161700Z 12007KT 090V150 9999 FEW040 29/14 Q1018 NOSIG
17:14 Parking Brakes off
17:19 Take-off
17:19 Take off Weight: 485321 Lbs
17:19 Wind: 006º @ 003 Knots Heading: 028º
17:19 POS N47º 09´ 34´´ W001º 36´ 21´´
17:19 Gear Up: 208 Knots
17:19 Flaps:3 at 208 Knots
17:20 Flaps:2 at 216 Knots
17:20 Flaps:3 at 219 Knots
17:20 Flaps:2 at 220 Knots
17:20 Flaps:1 at 222 Knots
17:21 Flaps:0 at 243 Knots
17:31 TOC
17:31 Fuel Weight: 26094 Lb
17:34 Wind:275º@029 Knots Heading: 103º Ground Speed: 530 Knots Altitude 31151 ft
17:49 Wind:291º@029 Knots Heading: 211º Ground Speed: 495 Knots Altitude 31171 ft
17:58 TOD
17:58 Fuel Weight: 18481 Lb
18:04 Wind:316º@032 Knots Heading: 189º Ground Speed: 436 Knots Altitude 18569 ft
18:11 Flaps:1 at 252 Knots
18:12 Flaps:2 at 247 Knots
18:12 Flaps:3 at 242 Knots
18:14 Flaps:4 at 221 Knots
18:14 Flaps:3 at 220 Knots
18:14 Flaps:4 at 219 Knots
18:14 Flaps:5 at 217 Knots
18:14 Flaps:6 at 213 Knots
18:16 Flaps:7 at 185 Knots
18:16 Gear Down: 185 Knots
18:17 Flaps:6 at 190 Knots
18:17 Flaps:7 at 189 Knots
18:19 Wind:106º@004 Knots Heading: 329º Ground Speed: 186 Knots Altitude 436 ft
18:19 TouchDown:Rate -367 ft/min Speed: 157 Knots
18:19 VATSIM:LFMP 161800Z AUTO VRB03KT 9999 NSC 29/14 Q1018
18:19 Land
18:19 Wind:115º@004 Knots
18:19 Heading: 328º
18:19 Flight Duration: 01:00
18:19 Landing Weight: 465627 Lbs
18:19 POS N42º 45´ 03´´ E002º 51´ 51´´
18:26 Parking brakes on
18:26 Block to Block Duration: 01:12
18:26 Final Fuel: 14115 Lbls
18:26 Spent Fuel: 21794 Lbls
18:26 Flight Length: 437 NM
18:26 TOD Land Length: 117 NM

Exportar CSV

Powered by Drupal - Modified by Danger4k